createdAt,value
2023-05-10T00:03:40.614Z,9.77
2023-05-10T00:08:41.919Z,11.27
2023-05-10T00:13:43.308Z,10.47
2023-05-10T00:18:44.639Z,11.87
2023-05-10T00:23:46.082Z,12.20
2023-05-10T00:28:47.607Z,11.50
2023-05-10T00:33:48.946Z,12.43
2023-05-10T00:38:50.491Z,12.93
2023-05-10T00:43:52.586Z,13.60
2023-05-10T00:48:54.122Z,15.40
2023-05-10T00:53:56.351Z,14.87
2023-05-10T00:58:58.044Z,13.67
2023-05-10T01:04:00.341Z,14.40
2023-05-10T01:09:02.377Z,13.90
2023-05-10T01:14:04.136Z,15.90
2023-05-10T01:19:19.508Z,13.70
2023-05-10T01:24:44.102Z,16.17
2023-05-10T01:29:51.473Z,16.00
2023-05-10T01:35:17.306Z,15.17
2023-05-10T01:40:36.740Z,16.17
2023-05-10T01:45:47.050Z,15.70
2023-05-10T01:50:51.296Z,16.17
2023-05-10T01:55:55.471Z,16.60
2023-05-10T02:01:00.994Z,16.60
2023-05-10T02:06:03.535Z,17.00
2023-05-10T02:11:05.837Z,16.47
2023-05-10T02:16:08.172Z,17.87
2023-05-10T02:21:11.561Z,18.27
2023-05-10T02:26:14.657Z,17.60
2023-05-10T02:31:18.284Z,15.93
2023-05-10T02:36:21.289Z,19.07
2023-05-10T02:41:24.494Z,17.73
2023-05-10T02:46:25.878Z,17.53
2023-05-10T02:51:32.295Z,18.37
2023-05-10T02:56:36.010Z,18.50
2023-05-10T03:01:37.343Z,18.07
2023-05-10T03:06:39.901Z,17.53
2023-05-10T03:12:09.239Z,16.83
2023-05-10T03:17:48.161Z,17.73
2023-05-10T03:22:55.923Z,17.70
2023-05-10T03:27:58.466Z,18.13
2023-05-10T03:33:06.303Z,19.07
2023-05-10T03:38:10.157Z,19.00
2023-05-10T03:43:11.698Z,21.10
2023-05-10T03:48:13.984Z,19.87
2023-05-10T03:53:16.566Z,20.90
2023-05-10T03:58:18.716Z,20.63
2023-05-10T04:03:20.711Z,18.23
2023-05-10T04:08:22.290Z,20.80
2023-05-10T04:13:24.061Z,21.30
2023-05-10T04:18:25.876Z,21.70
2023-05-10T04:23:27.886Z,22.13
2023-05-10T04:28:29.321Z,22.67
2023-05-10T04:33:31.302Z,23.43
2023-05-10T04:38:32.623Z,23.57
2023-05-10T04:43:33.946Z,24.13
2023-05-10T04:48:35.279Z,23.37
2023-05-10T04:53:36.903Z,25.13
2023-05-10T04:58:38.522Z,25.27
2023-05-10T05:03:40.114Z,23.67
2023-05-10T05:08:41.822Z,24.73
2023-05-10T05:13:43.710Z,27.10
2023-05-10T05:18:44.931Z,26.80
2023-05-10T05:23:46.725Z,24.40
2023-05-10T05:28:49.056Z,26.70
2023-05-10T05:33:50.499Z,25.47
2023-05-10T05:38:51.799Z,25.00
2023-05-10T05:43:53.276Z,23.23
2023-05-10T05:48:54.408Z,25.23
2023-05-10T05:53:55.917Z,24.67
2023-05-10T05:58:57.305Z,24.53
2023-05-10T06:03:58.881Z,25.13
2023-05-10T06:09:00.390Z,23.50
2023-05-10T06:14:02.383Z,23.85
2023-05-10T06:19:03.696Z,25.33
2023-05-10T06:24:06.930Z,23.95
2023-05-10T06:29:08.378Z,23.02
2023-05-10T06:34:10.057Z,23.90
2023-05-10T06:39:12.264Z,22.43
2023-05-10T06:44:13.596Z,22.63
2023-05-10T06:49:14.774Z,20.40
2023-05-10T06:54:16.123Z,20.58
2023-05-10T06:59:19.460Z,20.80
2023-05-10T07:04:20.650Z,22.65
2023-05-10T07:09:22.153Z,22.23
2023-05-10T07:14:23.707Z,23.80
2023-05-10T07:19:25.028Z,21.00
2023-05-10T07:24:26.439Z,14.07
2023-05-10T07:29:27.632Z,17.20
2023-05-10T07:34:30.422Z,17.40
2023-05-10T07:39:31.827Z,18.25
2023-05-10T07:44:33.193Z,17.10
2023-05-10T07:49:34.458Z,16.15
2023-05-10T07:54:35.819Z,16.55
2023-05-10T07:59:37.261Z,15.52
2023-05-10T08:04:38.826Z,16.00
2023-05-10T08:09:40.283Z,16.52
2023-05-10T08:14:41.879Z,15.13
2023-05-10T08:19:43.249Z,14.00
2023-05-10T08:24:44.536Z,13.82
2023-05-10T08:29:50.199Z,14.13
2023-05-10T08:34:52.170Z,14.35
2023-05-10T08:39:53.638Z,14.50
2023-05-10T08:44:56.511Z,12.93
2023-05-10T08:49:59.859Z,12.50
2023-05-10T08:55:01.302Z,11.85
2023-05-10T09:00:03.211Z,11.50
2023-05-10T09:05:06.701Z,11.85
2023-05-10T09:10:09.524Z,12.07
2023-05-10T09:15:11.404Z,11.40
2023-05-10T09:20:12.960Z,11.30
2023-05-10T09:25:16.177Z,10.25
2023-05-10T09:30:24.722Z,9.85
2023-05-10T09:35:29.619Z,10.18
2023-05-10T09:40:32.112Z,8.65
2023-05-10T09:45:37.744Z,10.70
2023-05-10T09:50:40.634Z,9.20
2023-05-10T09:55:45.237Z,8.05
2023-05-10T10:00:52.613Z,7.25
2023-05-10T10:05:56.215Z,6.57
2023-05-10T10:10:57.862Z,5.85
2023-05-10T10:16:02.691Z,6.18
2023-05-10T10:21:04.030Z,5.60
2023-05-10T10:26:06.166Z,6.00
2023-05-10T10:31:39.517Z,7.35
2023-05-10T10:36:45.246Z,6.43
2023-05-10T10:41:56.085Z,6.07
2023-05-10T10:47:13.476Z,7.22
2023-05-10T10:52:20.902Z,7.10
2023-05-10T10:57:22.270Z,6.20
2023-05-10T11:02:42.636Z,5.80
2023-05-10T11:07:55.195Z,6.63
2023-05-10T11:13:01.652Z,6.28
2023-05-10T11:18:21.348Z,6.07
2023-05-10T11:23:23.127Z,6.72
2023-05-10T11:28:26.132Z,5.35
2023-05-10T11:33:27.390Z,5.38
2023-05-10T11:38:28.773Z,5.63
2023-05-10T11:43:31.027Z,5.65
2023-05-10T11:48:32.815Z,5.72
2023-05-10T11:53:34.242Z,6.47
2023-05-10T11:58:37.179Z,5.82
2023-05-10T12:03:38.963Z,6.03
2023-05-10T12:08:45.896Z,5.50
2023-05-10T12:13:47.595Z,5.65
2023-05-10T12:18:53.934Z,5.72
2023-05-10T12:24:00.617Z,6.18
2023-05-10T12:29:18.944Z,5.95
2023-05-10T12:34:30.385Z,5.45
2023-05-10T12:39:40.298Z,6.40
2023-05-10T12:44:41.470Z,6.15
2023-05-10T12:49:42.739Z,6.03
2023-05-10T12:54:43.972Z,4.97
2023-05-10T12:59:45.383Z,5.15
2023-05-10T13:04:48.845Z,5.68
2023-05-10T13:09:51.642Z,6.38
2023-05-10T13:14:53.072Z,5.95
2023-05-10T13:19:54.383Z,5.70
2023-05-10T13:24:55.606Z,6.88
2023-05-10T13:29:59.598Z,5.68
2023-05-10T13:35:01.501Z,6.35
2023-05-10T13:40:04.295Z,5.80
2023-05-10T13:45:06.523Z,4.30
2023-05-10T13:50:08.718Z,4.80
2023-05-10T13:55:12.655Z,3.80
2023-05-10T14:00:17.081Z,4.78
2023-05-10T14:05:19.329Z,4.82
2023-05-10T14:10:23.709Z,5.53
2023-05-10T14:15:25.001Z,5.07
2023-05-10T14:20:26.478Z,5.50
2023-05-10T14:25:28.409Z,5.43
2023-05-10T14:30:29.734Z,6.45
2023-05-10T14:35:33.970Z,8.70
2023-05-10T14:40:35.207Z,8.32
2023-05-10T14:45:36.941Z,9.73
2023-05-10T14:50:39.015Z,9.73
2023-05-10T14:55:40.415Z,10.60
2023-05-10T15:00:41.744Z,9.88
2023-05-10T15:05:43.661Z,8.77
2023-05-10T15:10:45.003Z,10.32
2023-05-10T15:15:46.357Z,11.95
2023-05-10T15:20:48.067Z,10.23
2023-05-10T15:25:52.499Z,8.90
2023-05-10T15:30:53.737Z,6.57
2023-05-10T15:35:55.087Z,6.55
2023-05-10T15:40:58.303Z,6.50
2023-05-10T15:45:59.780Z,7.38
2023-05-10T15:51:01.202Z,6.55
2023-05-10T15:56:03.458Z,6.32
2023-05-10T16:01:07.757Z,6.40
2023-05-10T16:06:09.274Z,5.97
2023-05-10T16:11:10.685Z,5.90
2023-05-10T16:16:12.149Z,5.30
2023-05-10T16:21:13.485Z,5.50
2023-05-10T16:26:14.868Z,5.22
2023-05-10T16:31:18.065Z,5.38
2023-05-10T16:36:19.438Z,7.18
2023-05-10T16:41:20.919Z,6.75
2023-05-10T16:46:22.337Z,8.32
2023-05-10T16:51:23.502Z,8.30
2023-05-10T16:56:25.956Z,9.27
2023-05-10T17:01:27.542Z,9.52
2023-05-10T17:06:28.985Z,8.23
2023-05-10T17:11:31.215Z,10.43
2023-05-10T17:16:32.667Z,8.60
2023-05-10T17:21:34.305Z,9.20
2023-05-10T17:26:36.153Z,10.40
2023-05-10T17:31:37.997Z,10.02
2023-05-10T17:36:39.747Z,10.10
2023-05-10T17:41:41.513Z,10.18
2023-05-10T17:46:43.047Z,9.90
2023-05-10T17:51:47.211Z,9.52
2023-05-10T17:56:48.820Z,9.75
2023-05-10T18:01:50.190Z,11.07
2023-05-10T18:07:00.584Z,11.50
2023-05-10T18:12:02.646Z,12.07
2023-05-10T18:17:04.034Z,12.33
2023-05-10T18:22:08.148Z,11.77
2023-05-10T18:27:11.338Z,11.93
2023-05-10T18:32:12.552Z,12.97
2023-05-10T18:37:14.988Z,13.20
2023-05-10T18:42:16.808Z,12.03
2023-05-10T18:47:18.510Z,13.03
2023-05-10T18:52:19.923Z,13.03
2023-05-10T18:57:21.446Z,14.10
2023-05-10T19:02:24.582Z,14.23
2023-05-10T19:07:26.105Z,12.43
2023-05-10T19:12:27.840Z,14.30
2023-05-10T19:17:30.924Z,13.90
2023-05-10T19:22:47.206Z,14.37
2023-05-10T19:27:57.726Z,13.93
2023-05-10T19:32:59.376Z,14.20
2023-05-10T19:38:00.826Z,14.03
2023-05-10T19:43:03.061Z,15.97
2023-05-10T19:48:04.737Z,15.63
2023-05-10T19:53:06.121Z,15.27
2023-05-10T19:58:07.874Z,14.83
2023-05-10T20:03:09.483Z,18.23
2023-05-10T20:08:11.016Z,16.83
2023-05-10T20:13:12.424Z,16.70
2023-05-10T20:18:13.696Z,16.77
2023-05-10T20:23:15.318Z,16.60
2023-05-10T20:28:22.283Z,18.50
2023-05-10T20:33:24.438Z,17.53
2023-05-10T20:38:25.833Z,16.53
2023-05-10T20:43:28.486Z,16.97
2023-05-10T20:48:33.031Z,16.27
2023-05-10T20:53:35.015Z,15.73
2023-05-10T20:58:36.606Z,19.10
2023-05-10T21:03:37.994Z,18.37
2023-05-10T21:08:39.932Z,17.03
2023-05-10T21:13:41.690Z,16.50
2023-05-10T21:18:43.093Z,16.20
2023-05-10T21:23:48.073Z,15.23
2023-05-10T21:28:54.807Z,14.30
2023-05-10T21:33:56.479Z,15.03
2023-05-10T21:38:57.763Z,16.03
2023-05-10T21:43:59.129Z,17.67
2023-05-10T21:49:00.610Z,17.90
2023-05-10T21:54:02.193Z,17.63
2023-05-10T21:59:03.659Z,17.23
2023-05-10T22:04:04.984Z,17.43
2023-05-10T22:09:06.398Z,17.00
2023-05-10T22:14:07.569Z,14.80
2023-05-10T22:19:09.196Z,16.50
2023-05-10T22:24:11.054Z,17.63
2023-05-10T22:29:12.505Z,17.50
2023-05-10T22:34:14.242Z,17.47
2023-05-10T22:39:16.024Z,18.07
2023-05-10T22:44:17.555Z,17.93
2023-05-10T22:49:19.027Z,18.00
2023-05-10T23:12:38.579Z,21.43
2023-05-10T23:17:40.049Z,16.03
2023-05-10T23:22:41.796Z,14.10
2023-05-10T23:27:43.364Z,13.37
2023-05-10T23:32:44.681Z,12.57
2023-05-10T23:37:46.258Z,13.20
2023-05-10T23:42:47.580Z,13.07
2023-05-10T23:47:49.022Z,14.73
2023-05-10T23:52:50.840Z,15.93
2023-05-10T23:57:52.949Z,16.27
